Terminal Aerodrome Forecast
Issued by NWS

Home | Current Version | Previous Version | Text Only | Print | Product List | Glossary On
Versions: 1 2 3 4 5 6 7 8 9 10 11 12 13 14 15 16 17 18
000
FTUS41 KILN 011700
TAFLCK
TAF
KLCK 011740Z 0118/0218 22014G22KT P6SM VCSH SCT025 BKN040
     FM012100 22014G23KT P6SM -SHRA VCTS BKN040CB
     FM020000 21007KT P6SM SCT040 BKN080
     FM020900 18005KT P6SM -SHRA BKN040 OVC120
     FM021200 20007KT P6SM -SHRA VCTS BKN040CB OVC120
     FM021500 23010G20KT 3SM -SHRA VCTS BKN035CB OVC120
      TEMPO 0215/0218 2SM -TSRA=

USA.gov is the U.S. government's official web portal to all federal, state and local government web resources and services.